sensor_id;sensor_type;location;lat;lon;timestamp;P1;durP1;ratioP1;P2;durP2;ratioP2
65665;SDS011;52365;47.464;18.976;2022-12-01T00:00:19;13.32;;;8.38;;
65665;SDS011;52365;47.464;18.976;2022-12-01T00:00:55;13.13;;;8.23;;
65665;SDS011;52365;47.464;18.976;2022-12-01T00:01:31;12.75;;;7.82;;
65665;SDS011;52365;47.464;18.976;2022-12-01T00:02:07;14.55;;;8.48;;
65665;SDS011;52365;47.464;18.976;2022-12-01T00:02:43;13.38;;;7.80;;
65665;SDS011;52365;47.464;18.976;2022-12-01T00:03:19;15.18;;;8.30;;
65665;SDS011;52365;47.464;18.976;2022-12-01T00:03:56;13.52;;;7.90;;
65665;SDS011;52365;47.464;18.976;2022-12-01T00:04:32;14.05;;;8.32;;
65665;SDS011;52365;47.464;18.976;2022-12-01T00:05:08;13.13;;;8.20;;
65665;SDS011;52365;47.464;18.976;2022-12-01T00:05:44;15.70;;;9.10;;
65665;SDS011;52365;47.464;18.976;2022-12-01T00:06:20;13.98;;;8.52;;
65665;SDS011;52365;47.464;18.976;2022-12-01T00:06:56;14.07;;;8.70;;
65665;SDS011;52365;47.464;18.976;2022-12-01T00:07:32;13.25;;;8.15;;
65665;SDS011;52365;47.464;18.976;2022-12-01T00:08:08;14.52;;;8.55;;
65665;SDS011;52365;47.464;18.976;2022-12-01T00:08:45;12.63;;;8.00;;
65665;SDS011;52365;47.464;18.976;2022-12-01T00:09:41;14.32;;;8.25;;
65665;SDS011;52365;47.464;18.976;2022-12-01T00:10:35;12.77;;;8.35;;
65665;SDS011;52365;47.464;18.976;2022-12-01T00:11:12;13.85;;;8.23;;
65665;SDS011;52365;47.464;18.976;2022-12-01T00:11:48;13.18;;;8.13;;
65665;SDS011;52365;47.464;18.976;2022-12-01T00:12:24;13.50;;;8.05;;
65665;SDS011;52365;47.464;18.976;2022-12-01T00:13:03;13.70;;;8.18;;
65665;SDS011;52365;47.464;18.976;2022-12-01T00:13:40;13.62;;;8.57;;
65665;SDS011;52365;47.464;18.976;2022-12-01T00:14:16;16.12;;;8.60;;
65665;SDS011;52365;47.464;18.976;2022-12-01T00:14:52;13.07;;;8.18;;
65665;SDS011;52365;47.464;18.976;2022-12-01T00:15:35;14.15;;;8.50;;
65665;SDS011;52365;47.464;18.976;2022-12-01T00:16:15;14.75;;;8.57;;
65665;SDS011;52365;47.464;18.976;2022-12-01T00:16:51;13.98;;;8.60;;
65665;SDS011;52365;47.464;18.976;2022-12-01T00:17:28;13.65;;;8.55;;
65665;SDS011;52365;47.464;18.976;2022-12-01T00:18:04;13.90;;;8.65;;
65665;SDS011;52365;47.464;18.976;2022-12-01T00:18:41;14.57;;;8.75;;
65665;SDS011;52365;47.464;18.976;2022-12-01T00:19:17;13.25;;;8.40;;
65665;SDS011;52365;47.464;18.976;2022-12-01T00:19:53;15.65;;;8.65;;
65665;SDS011;52365;47.464;18.976;2022-12-01T00:20:31;13.57;;;8.65;;
65665;SDS011;52365;47.464;18.976;2022-12-01T00:21:15;15.10;;;8.65;;
65665;SDS011;52365;47.464;18.976;2022-12-01T00:21:55;14.80;;;8.50;;
65665;SDS011;52365;47.464;18.976;2022-12-01T00:22:31;14.77;;;8.60;;
65665;SDS011;52365;47.464;18.976;2022-12-01T00:23:07;14.98;;;8.98;;
65665;SDS011;52365;47.464;18.976;2022-12-01T00:23:44;13.48;;;8.70;;
65665;SDS011;52365;47.464;18.976;2022-12-01T00:24:22;14.82;;;8.80;;
65665;SDS011;52365;47.464;18.976;2022-12-01T00:24:59;14.93;;;9.00;;
65665;SDS011;52365;47.464;18.976;2022-12-01T00:25:35;14.50;;;8.98;;
65665;SDS011;52365;47.464;18.976;2022-12-01T00:26:11;14.70;;;8.90;;
65665;SDS011;52365;47.464;18.976;2022-12-01T00:26:47;14.40;;;8.88;;
65665;SDS011;52365;47.464;18.976;2022-12-01T00:27:23;15.30;;;8.85;;
65665;SDS011;52365;47.464;18.976;2022-12-01T00:27:59;14.07;;;8.75;;
65665;SDS011;52365;47.464;18.976;2022-12-01T00:28:35;15.90;;;9.48;;
65665;SDS011;52365;47.464;18.976;2022-12-01T00:29:11;14.73;;;8.57;;
65665;SDS011;52365;47.464;18.976;2022-12-01T00:29:47;15.07;;;9.25;;
65665;SDS011;52365;47.464;18.976;2022-12-01T00:30:23;14.57;;;8.90;;
65665;SDS011;52365;47.464;18.976;2022-12-01T00:30:59;15.90;;;8.93;;
65665;SDS011;52365;47.464;18.976;2022-12-01T00:31:35;15.70;;;9.35;;
65665;SDS011;52365;47.464;18.976;2022-12-01T00:32:12;15.13;;;9.07;;
65665;SDS011;52365;47.464;18.976;2022-12-01T00:32:48;14.13;;;8.98;;
65665;SDS011;52365;47.464;18.976;2022-12-01T00:33:24;15.45;;;9.05;;
65665;SDS011;52365;47.464;18.976;2022-12-01T00:34:00;16.35;;;9.70;;
65665;SDS011;52365;47.464;18.976;2022-12-01T00:34:36;15.70;;;9.05;;
65665;SDS011;52365;47.464;18.976;2022-12-01T00:35:13;15.60;;;9.43;;
65665;SDS011;52365;47.464;18.976;2022-12-01T00:35:56;14.70;;;8.95;;
65665;SDS011;52365;47.464;18.976;2022-12-01T00:36:34;15.20;;;9.27;;
65665;SDS011;52365;47.464;18.976;2022-12-01T00:37:10;15.60;;;9.15;;
65665;SDS011;52365;47.464;18.976;2022-12-01T00:37:46;16.45;;;9.30;;
65665;SDS011;52365;47.464;18.976;2022-12-01T00:38:22;15.45;;;8.55;;
65665;SDS011;52365;47.464;18.976;2022-12-01T00:38:58;15.68;;;9.35;;
65665;SDS011;52365;47.464;18.976;2022-12-01T00:39:34;14.65;;;9.07;;
65665;SDS011;52365;47.464;18.976;2022-12-01T00:40:10;15.52;;;9.15;;
65665;SDS011;52365;47.464;18.976;2022-12-01T00:40:46;15.52;;;9.15;;
65665;SDS011;52365;47.464;18.976;2022-12-01T00:41:23;14.75;;;8.75;;
65665;SDS011;52365;47.464;18.976;2022-12-01T00:42:00;16.98;;;9.13;;
65665;SDS011;52365;47.464;18.976;2022-12-01T00:42:36;15.07;;;9.32;;
65665;SDS011;52365;47.464;18.976;2022-12-01T00:43:12;16.25;;;9.50;;
65665;SDS011;52365;47.464;18.976;2022-12-01T00:43:48;16.10;;;8.98;;
65665;SDS011;52365;47.464;18.976;2022-12-01T00:44:25;15.50;;;9.43;;
65665;SDS011;52365;47.464;18.976;2022-12-01T00:45:01;15.05;;;8.88;;
65665;SDS011;52365;47.464;18.976;2022-12-01T00:45:37;16.12;;;9.50;;
65665;SDS011;52365;47.464;18.976;2022-12-01T00:46:13;13.75;;;8.90;;
65665;SDS011;52365;47.464;18.976;2022-12-01T00:46:49;16.15;;;8.93;;
65665;SDS011;52365;47.464;18.976;2022-12-01T00:47:25;14.10;;;8.80;;
65665;SDS011;52365;47.464;18.976;2022-12-01T00:48:01;15.75;;;9.48;;
65665;SDS011;52365;47.464;18.976;2022-12-01T00:48:37;16.75;;;9.25;;
65665;SDS011;52365;47.464;18.976;2022-12-01T00:49:14;14.98;;;9.23;;
65665;SDS011;52365;47.464;18.976;2022-12-01T00:49:50;14.95;;;9.38;;
65665;SDS011;52365;47.464;18.976;2022-12-01T00:50:27;15.60;;;9.43;;
65665;SDS011;52365;47.464;18.976;2022-12-01T00:51:03;16.87;;;9.50;;
65665;SDS011;52365;47.464;18.976;2022-12-01T00:51:39;16.92;;;9.43;;
65665;SDS011;52365;47.464;18.976;2022-12-01T00:52:15;16.42;;;9.68;;
65665;SDS011;52365;47.464;18.976;2022-12-01T00:52:52;14.77;;;9.63;;
65665;SDS011;52365;47.464;18.976;2022-12-01T00:53:28;15.95;;;9.50;;
65665;SDS011;52365;47.464;18.976;2022-12-01T00:54:04;15.05;;;9.63;;
65665;SDS011;52365;47.464;18.976;2022-12-01T00:54:40;15.80;;;10.15;;
65665;SDS011;52365;47.464;18.976;2022-12-01T00:55:16;16.05;;;9.82;;
65665;SDS011;52365;47.464;18.976;2022-12-01T00:55:52;16.80;;;10.07;;
65665;SDS011;52365;47.464;18.976;2022-12-01T00:56:31;17.15;;;10.43;;
65665;SDS011;52365;47.464;18.976;2022-12-01T00:57:07;19.23;;;10.45;;
65665;SDS011;52365;47.464;18.976;2022-12-01T00:57:43;17.08;;;9.90;;
65665;SDS011;52365;47.464;18.976;2022-12-01T00:58:20;16.00;;;9.80;;
65665;SDS011;52365;47.464;18.976;2022-12-01T00:58:57;14.82;;;9.27;;
65665;SDS011;52365;47.464;18.976;2022-12-01T00:59:33;16.37;;;9.90;;
65665;SDS011;52365;47.464;18.976;2022-12-01T01:00:13;17.02;;;9.82;;
65665;SDS011;52365;47.464;18.976;2022-12-01T01:00:56;16.35;;;9.25;;
65665;SDS011;52365;47.464;18.976;2022-12-01T01:01:33;15.38;;;9.80;;
65665;SDS011;52365;47.464;18.976;2022-12-01T01:02:09;15.23;;;9.68;;
65665;SDS011;52365;47.464;18.976;2022-12-01T01:02:45;15.90;;;9.88;;
65665;SDS011;52365;47.464;18.976;2022-12-01T01:03:22;17.85;;;9.70;;
65665;SDS011;52365;47.464;18.976;2022-12-01T01:03:58;15.82;;;9.73;;
65665;SDS011;52365;47.464;18.976;2022-12-01T01:04:34;14.95;;;9.18;;
65665;SDS011;52365;47.464;18.976;2022-12-01T01:05:11;19.15;;;10.57;;
65665;SDS011;52365;47.464;18.976;2022-12-01T01:05:47;17.05;;;10.25;;
65665;SDS011;52365;47.464;18.976;2022-12-01T01:06:23;15.27;;;9.82;;
65665;SDS011;52365;47.464;18.976;2022-12-01T01:06:59;15.60;;;9.82;;
65665;SDS011;52365;47.464;18.976;2022-12-01T01:07:35;16.73;;;10.07;;
65665;SDS011;52365;47.464;18.976;2022-12-01T01:08:12;15.15;;;9.80;;
65665;SDS011;52365;47.464;18.976;2022-12-01T01:08:49;15.05;;;9.57;;
65665;SDS011;52365;47.464;18.976;2022-12-01T01:09:25;15.63;;;9.65;;
65665;SDS011;52365;47.464;18.976;2022-12-01T01:10:01;15.38;;;9.60;;
65665;SDS011;52365;47.464;18.976;2022-12-01T01:10:41;15.65;;;9.77;;
65665;SDS011;52365;47.464;18.976;2022-12-01T01:11:19;16.67;;;9.73;;
65665;SDS011;52365;47.464;18.976;2022-12-01T01:11:55;16.50;;;9.73;;
65665;SDS011;52365;47.464;18.976;2022-12-01T01:12:31;17.83;;;10.10;;
65665;SDS011;52365;47.464;18.976;2022-12-01T01:13:07;16.62;;;10.07;;
65665;SDS011;52365;47.464;18.976;2022-12-01T01:13:44;16.67;;;10.25;;
65665;SDS011;52365;47.464;18.976;2022-12-01T01:14:20;15.30;;;9.57;;
65665;SDS011;52365;47.464;18.976;2022-12-01T01:14:56;16.37;;;9.88;;
65665;SDS011;52365;47.464;18.976;2022-12-01T01:15:32;17.80;;;10.27;;
65665;SDS011;52365;47.464;18.976;2022-12-01T01:16:12;15.77;;;9.82;;
65665;SDS011;52365;47.464;18.976;2022-12-01T01:16:50;16.30;;;9.60;;
65665;SDS011;52365;47.464;18.976;2022-12-01T01:17:26;16.58;;;10.35;;
65665;SDS011;52365;47.464;18.976;2022-12-01T01:18:03;16.95;;;10.07;;
65665;SDS011;52365;47.464;18.976;2022-12-01T01:18:39;15.35;;;9.90;;
65665;SDS011;52365;47.464;18.976;2022-12-01T01:19:16;16.25;;;10.02;;
65665;SDS011;52365;47.464;18.976;2022-12-01T01:19:52;16.52;;;9.98;;
65665;SDS011;52365;47.464;18.976;2022-12-01T01:20:28;16.95;;;10.18;;
65665;SDS011;52365;47.464;18.976;2022-12-01T01:21:05;16.85;;;10.35;;
65665;SDS011;52365;47.464;18.976;2022-12-01T01:21:43;15.98;;;9.82;;
65665;SDS011;52365;47.464;18.976;2022-12-01T01:22:19;16.65;;;9.75;;
65665;SDS011;52365;47.464;18.976;2022-12-01T01:22:55;18.62;;;10.10;;
65665;SDS011;52365;47.464;18.976;2022-12-01T01:23:31;16.17;;;9.35;;
65665;SDS011;52365;47.464;18.976;2022-12-01T01:24:07;16.85;;;10.07;;
65665;SDS011;52365;47.464;18.976;2022-12-01T01:24:43;17.23;;;9.95;;
65665;SDS011;52365;47.464;18.976;2022-12-01T01:25:20;16.35;;;10.20;;
65665;SDS011;52365;47.464;18.976;2022-12-01T01:26:03;15.93;;;9.32;;
65665;SDS011;52365;47.464;18.976;2022-12-01T01:26:40;16.10;;;10.00;;
65665;SDS011;52365;47.464;18.976;2022-12-01T01:27:17;17.92;;;10.05;;
65665;SDS011;52365;47.464;18.976;2022-12-01T01:27:53;17.05;;;9.80;;
65665;SDS011;52365;47.464;18.976;2022-12-01T01:28:29;16.55;;;9.45;;
65665;SDS011;52365;47.464;18.976;2022-12-01T01:29:06;16.17;;;9.50;;
65665;SDS011;52365;47.464;18.976;2022-12-01T01:29:42;14.95;;;9.25;;
65665;SDS011;52365;47.464;18.976;2022-12-01T01:30:18;15.20;;;9.27;;
65665;SDS011;52365;47.464;18.976;2022-12-01T01:30:55;15.93;;;9.82;;
65665;SDS011;52365;47.464;18.976;2022-12-01T01:31:31;15.18;;;9.48;;
65665;SDS011;52365;47.464;18.976;2022-12-01T01:32:07;16.67;;;10.25;;
65665;SDS011;52365;47.464;18.976;2022-12-01T01:32:43;16.40;;;9.77;;
65665;SDS011;52365;47.464;18.976;2022-12-01T01:33:19;14.18;;;9.27;;
65665;SDS011;52365;47.464;18.976;2022-12-01T01:33:56;15.77;;;9.55;;
65665;SDS011;52365;47.464;18.976;2022-12-01T01:34:32;16.87;;;9.65;;
65665;SDS011;52365;47.464;18.976;2022-12-01T01:35:09;16.40;;;9.90;;
65665;SDS011;52365;47.464;18.976;2022-12-01T01:35:44;16.52;;;9.52;;
65665;SDS011;52365;47.464;18.976;2022-12-01T01:36:21;16.50;;;9.48;;
65665;SDS011;52365;47.464;18.976;2022-12-01T01:36:57;17.33;;;9.82;;
65665;SDS011;52365;47.464;18.976;2022-12-01T01:37:33;17.42;;;9.50;;
65665;SDS011;52365;47.464;18.976;2022-12-01T01:38:09;17.52;;;9.95;;
65665;SDS011;52365;47.464;18.976;2022-12-01T01:38:46;15.45;;;9.25;;
65665;SDS011;52365;47.464;18.976;2022-12-01T01:39:22;16.75;;;9.82;;
65665;SDS011;52365;47.464;18.976;2022-12-01T01:39:58;16.45;;;9.52;;
65665;SDS011;52365;47.464;18.976;2022-12-01T01:40:40;16.70;;;10.07;;
65665;SDS011;52365;47.464;18.976;2022-12-01T01:41:18;15.43;;;9.07;;
65665;SDS011;52365;47.464;18.976;2022-12-01T01:41:55;16.55;;;10.07;;
65665;SDS011;52365;47.464;18.976;2022-12-01T01:42:31;15.75;;;9.60;;
65665;SDS011;52365;47.464;18.976;2022-12-01T01:43:14;15.73;;;9.18;;
65665;SDS011;52365;47.464;18.976;2022-12-01T01:43:56;16.37;;;9.68;;
65665;SDS011;52365;47.464;18.976;2022-12-01T01:44:52;18.98;;;10.18;;
65665;SDS011;52365;47.464;18.976;2022-12-01T01:45:32;16.15;;;9.82;;
65665;SDS011;52365;47.464;18.976;2022-12-01T01:46:09;15.73;;;9.45;;
65665;SDS011;52365;47.464;18.976;2022-12-01T01:46:48;15.48;;;9.65;;
65665;SDS011;52365;47.464;18.976;2022-12-01T01:47:34;18.58;;;10.15;;
65665;SDS011;52365;47.464;18.976;2022-12-01T01:48:12;18.17;;;10.13;;
65665;SDS011;52365;47.464;18.976;2022-12-01T01:48:59;17.00;;;9.73;;
65665;SDS011;52365;47.464;18.976;2022-12-01T01:49:40;16.70;;;10.02;;
65665;SDS011;52365;47.464;18.976;2022-12-01T01:50:19;17.17;;;9.88;;
65665;SDS011;52365;47.464;18.976;2022-12-01T01:50:57;17.02;;;10.02;;
65665;SDS011;52365;47.464;18.976;2022-12-01T01:51:40;16.17;;;9.73;;
65665;SDS011;52365;47.464;18.976;2022-12-01T01:52:17;16.23;;;9.80;;
65665;SDS011;52365;47.464;18.976;2022-12-01T01:53:11;16.17;;;9.70;;
65665;SDS011;52365;47.464;18.976;2022-12-01T01:53:50;16.40;;;9.98;;
65665;SDS011;52365;47.464;18.976;2022-12-01T01:54:34;16.73;;;9.63;;
65665;SDS011;52365;47.464;18.976;2022-12-01T01:55:14;16.20;;;10.17;;
65665;SDS011;52365;47.464;18.976;2022-12-01T01:55:50;16.73;;;9.48;;
65665;SDS011;52365;47.464;18.976;2022-12-01T01:56:27;18.15;;;10.35;;
65665;SDS011;52365;47.464;18.976;2022-12-01T01:57:04;17.73;;;9.98;;
65665;SDS011;52365;47.464;18.976;2022-12-01T01:57:42;17.90;;;10.57;;
65665;SDS011;52365;47.464;18.976;2022-12-01T01:58:19;16.55;;;10.20;;
65665;SDS011;52365;47.464;18.976;2022-12-01T01:58:56;18.20;;;10.70;;
65665;SDS011;52365;47.464;18.976;2022-12-01T01:59:38;16.33;;;10.13;;
65665;SDS011;52365;47.464;18.976;2022-12-01T02:00:18;18.80;;;10.70;;
65665;SDS011;52365;47.464;18.976;2022-12-01T02:00:55;17.37;;;10.00;;
65665;SDS011;52365;47.464;18.976;2022-12-01T02:01:31;17.52;;;10.25;;
65665;SDS011;52365;47.464;18.976;2022-12-01T02:02:08;18.10;;;10.48;;
65665;SDS011;52365;47.464;18.976;2022-12-01T02:02:46;17.87;;;10.30;;
65665;SDS011;52365;47.464;18.976;2022-12-01T02:03:23;18.23;;;10.77;;
65665;SDS011;52365;47.464;18.976;2022-12-01T02:04:02;16.85;;;10.15;;
65665;SDS011;52365;47.464;18.976;2022-12-01T02:04:39;17.35;;;10.30;;
65665;SDS011;52365;47.464;18.976;2022-12-01T02:05:21;17.83;;;10.50;;
65665;SDS011;52365;47.464;18.976;2022-12-01T02:06:03;16.80;;;10.00;;
65665;SDS011;52365;47.464;18.976;2022-12-01T02:06:39;18.92;;;10.68;;
65665;SDS011;52365;47.464;18.976;2022-12-01T02:07:16;17.33;;;10.05;;
65665;SDS011;52365;47.464;18.976;2022-12-01T02:07:55;17.42;;;10.40;;
65665;SDS011;52365;47.464;18.976;2022-12-01T02:08:33;17.77;;;10.25;;
65665;SDS011;52365;47.464;18.976;2022-12-01T02:09:10;17.73;;;10.05;;
65665;SDS011;52365;47.464;18.976;2022-12-01T02:09:47;17.37;;;10.30;;
65665;SDS011;52365;47.464;18.976;2022-12-01T02:10:26;16.70;;;10.20;;
65665;SDS011;52365;47.464;18.976;2022-12-01T02:12:02;18.65;;;10.90;;
65665;SDS011;52365;47.464;18.976;2022-12-01T02:15:44;17.85;;;10.30;;
65665;SDS011;52365;47.464;18.976;2022-12-01T02:16:56;17.65;;;10.38;;
65665;SDS011;52365;47.464;18.976;2022-12-01T02:18:44;18.12;;;10.20;;
65665;SDS011;52365;47.464;18.976;2022-12-01T02:20:21;18.25;;;10.48;;
65665;SDS011;52365;47.464;18.976;2022-12-01T02:26:58;18.45;;;10.50;;
65665;SDS011;52365;47.464;18.976;2022-12-01T02:30:44;17.62;;;10.27;;
65665;SDS011;52365;47.464;18.976;2022-12-01T02:33:10;18.90;;;10.43;;
65665;SDS011;52365;47.464;18.976;2022-12-01T02:34:00;20.65;;;10.85;;
65665;SDS011;52365;47.464;18.976;2022-12-01T02:36:15;18.40;;;10.77;;
65665;SDS011;52365;47.464;18.976;2022-12-01T02:36:57;18.17;;;10.88;;
65665;SDS011;52365;47.464;18.976;2022-12-01T02:38:53;18.95;;;11.07;;
65665;SDS011;52365;47.464;18.976;2022-12-01T02:39:53;19.75;;;10.88;;
65665;SDS011;52365;47.464;18.976;2022-12-01T02:40:40;19.50;;;10.85;;
65665;SDS011;52365;47.464;18.976;2022-12-01T02:41:29;17.98;;;10.88;;
65665;SDS011;52365;47.464;18.976;2022-12-01T02:42:13;19.60;;;10.60;;
65665;SDS011;52365;47.464;18.976;2022-12-01T02:43:16;18.00;;;10.65;;
65665;SDS011;52365;47.464;18.976;2022-12-01T02:44:53;16.30;;;9.85;;
65665;SDS011;52365;47.464;18.976;2022-12-01T02:45:35;16.20;;;9.65;;
65665;SDS011;52365;47.464;18.976;2022-12-01T02:46:30;15.40;;;9.07;;
65665;SDS011;52365;47.464;18.976;2022-12-01T02:47:11;16.75;;;9.77;;
65665;SDS011;52365;47.464;18.976;2022-12-01T02:47:50;17.37;;;9.45;;
65665;SDS011;52365;47.464;18.976;2022-12-01T02:48:30;16.85;;;9.48;;
65665;SDS011;52365;47.464;18.976;2022-12-01T02:49:29;17.50;;;9.85;;
65665;SDS011;52365;47.464;18.976;2022-12-01T02:50:10;17.83;;;10.27;;
65665;SDS011;52365;47.464;18.976;2022-12-01T02:50:47;17.00;;;10.05;;
65665;SDS011;52365;47.464;18.976;2022-12-01T02:51:26;17.92;;;10.32;;
65665;SDS011;52365;47.464;18.976;2022-12-01T02:52:05;17.60;;;9.93;;
65665;SDS011;52365;47.464;18.976;2022-12-01T02:52:41;16.87;;;9.75;;
65665;SDS011;52365;47.464;18.976;2022-12-01T02:53:18;15.30;;;8.80;;
65665;SDS011;52365;47.464;18.976;2022-12-01T02:53:55;15.55;;;9.00;;
65665;SDS011;52365;47.464;18.976;2022-12-01T02:54:33;16.87;;;9.63;;
65665;SDS011;52365;47.464;18.976;2022-12-01T02:55:11;14.73;;;8.95;;
65665;SDS011;52365;47.464;18.976;2022-12-01T02:55:52;15.13;;;9.00;;
65665;SDS011;52365;47.464;18.976;2022-12-01T02:56:29;15.85;;;9.30;;
65665;SDS011;52365;47.464;18.976;2022-12-01T02:57:07;15.23;;;8.68;;
65665;SDS011;52365;47.464;18.976;2022-12-01T02:57:46;14.43;;;8.65;;
65665;SDS011;52365;47.464;18.976;2022-12-01T02:58:22;16.45;;;9.38;;
65665;SDS011;52365;47.464;18.976;2022-12-01T02:58:58;15.32;;;9.00;;
65665;SDS011;52365;47.464;18.976;2022-12-01T02:59:34;17.52;;;9.05;;
65665;SDS011;52365;47.464;18.976;2022-12-01T03:00:10;14.57;;;8.40;;
65665;SDS011;52365;47.464;18.976;2022-12-01T03:01:56;14.23;;;8.00;;
65665;SDS011;52365;47.464;18.976;2022-12-01T03:10:53;14.32;;;8.70;;
65665;SDS011;52365;47.464;18.976;2022-12-01T03:11:37;16.60;;;9.60;;
65665;SDS011;52365;47.464;18.976;2022-12-01T03:12:36;14.87;;;8.55;;
65665;SDS011;52365;47.464;18.976;2022-12-01T03:15:34;15.25;;;9.13;;
65665;SDS011;52365;47.464;18.976;2022-12-01T03:16:13;15.75;;;9.25;;
65665;SDS011;52365;47.464;18.976;2022-12-01T03:17:00;15.57;;;9.20;;
65665;SDS011;52365;47.464;18.976;2022-12-01T03:18:27;15.75;;;9.00;;
65665;SDS011;52365;47.464;18.976;2022-12-01T03:20:18;14.98;;;8.75;;
65665;SDS011;52365;47.464;18.976;2022-12-01T03:21:04;15.68;;;9.18;;
65665;SDS011;52365;47.464;18.976;2022-12-01T03:22:06;15.88;;;9.07;;
65665;SDS011;52365;47.464;18.976;2022-12-01T03:22:48;15.38;;;9.27;;
65665;SDS011;52365;47.464;18.976;2022-12-01T03:23:29;15.52;;;9.40;;
65665;SDS011;52365;47.464;18.976;2022-12-01T03:24:13;14.63;;;8.88;;
65665;SDS011;52365;47.464;18.976;2022-12-01T03:24:52;14.77;;;8.80;;
65665;SDS011;52365;47.464;18.976;2022-12-01T03:25:30;16.35;;;9.23;;
65665;SDS011;52365;47.464;18.976;2022-12-01T03:26:07;17.12;;;9.18;;
65665;SDS011;52365;47.464;18.976;2022-12-01T03:26:52;15.73;;;8.82;;
65665;SDS011;52365;47.464;18.976;2022-12-01T03:27:32;15.38;;;9.30;;
65665;SDS011;52365;47.464;18.976;2022-12-01T03:28:12;15.77;;;9.60;;
65665;SDS011;52365;47.464;18.976;2022-12-01T03:28:53;15.90;;;9.32;;
65665;SDS011;52365;47.464;18.976;2022-12-01T03:29:34;15.10;;;8.73;;
65665;SDS011;52365;47.464;18.976;2022-12-01T03:30:14;16.12;;;8.75;;
65665;SDS011;52365;47.464;18.976;2022-12-01T03:30:51;17.92;;;9.60;;
65665;SDS011;52365;47.464;18.976;2022-12-01T03:31:37;16.15;;;9.50;;
65665;SDS011;52365;47.464;18.976;2022-12-01T03:32:20;16.58;;;9.82;;
65665;SDS011;52365;47.464;18.976;2022-12-01T03:33:07;15.95;;;9.57;;
65665;SDS011;52365;47.464;18.976;2022-12-01T03:33:56;15.85;;;9.90;;
65665;SDS011;52365;47.464;18.976;2022-12-01T03:35:23;16.75;;;9.80;;
65665;SDS011;52365;47.464;18.976;2022-12-01T03:36:11;14.73;;;9.45;;
65665;SDS011;52365;47.464;18.976;2022-12-01T03:37:03;16.02;;;9.40;;
65665;SDS011;52365;47.464;18.976;2022-12-01T03:37:47;14.50;;;8.93;;
65665;SDS011;52365;47.464;18.976;2022-12-01T03:38:28;15.55;;;9.20;;
65665;SDS011;52365;47.464;18.976;2022-12-01T03:39:10;15.93;;;9.35;;
65665;SDS011;52365;47.464;18.976;2022-12-01T03:39:49;14.87;;;9.05;;
65665;SDS011;52365;47.464;18.976;2022-12-01T03:40:31;17.98;;;9.73;;
65665;SDS011;52365;47.464;18.976;2022-12-01T03:41:18;14.07;;;8.75;;
65665;SDS011;52365;47.464;18.976;2022-12-01T03:41:59;16.55;;;9.52;;
65665;SDS011;52365;47.464;18.976;2022-12-01T03:43:16;15.40;;;9.30;;
65665;SDS011;52365;47.464;18.976;2022-12-01T03:43:48;14.23;;;8.52;;
65665;SDS011;52365;47.464;18.976;2022-12-01T03:44:33;16.12;;;9.60;;
65665;SDS011;52365;47.464;18.976;2022-12-01T03:45:20;15.27;;;8.90;;
65665;SDS011;52365;47.464;18.976;2022-12-01T03:46:11;15.98;;;9.30;;
65665;SDS011;52365;47.464;18.976;2022-12-01T03:46:55;14.93;;;9.15;;
65665;SDS011;52365;47.464;18.976;2022-12-01T03:47:36;16.00;;;9.30;;
65665;SDS011;52365;47.464;18.976;2022-12-01T03:48:15;14.73;;;8.70;;
65665;SDS011;52365;47.464;18.976;2022-12-01T03:48:52;14.95;;;8.77;;
65665;SDS011;52365;47.464;18.976;2022-12-01T03:49:28;14.85;;;8.50;;
65665;SDS011;52365;47.464;18.976;2022-12-01T03:50:06;14.75;;;8.63;;
65665;SDS011;52365;47.464;18.976;2022-12-01T03:52:46;15.55;;;9.00;;
65665;SDS011;52365;47.464;18.976;2022-12-01T03:53:49;13.20;;;8.48;;
65665;SDS011;52365;47.464;18.976;2022-12-01T03:55:56;16.75;;;8.93;;
65665;SDS011;52365;47.464;18.976;2022-12-01T03:56:39;12.55;;;8.05;;
65665;SDS011;52365;47.464;18.976;2022-12-01T03:57:24;15.07;;;8.60;;
65665;SDS011;52365;47.464;18.976;2022-12-01T03:58:14;14.25;;;8.52;;
65665;SDS011;52365;47.464;18.976;2022-12-01T03:58:51;15.25;;;8.77;;
65665;SDS011;52365;47.464;18.976;2022-12-01T03:59:31;13.90;;;8.23;;
65665;SDS011;52365;47.464;18.976;2022-12-01T04:00:12;14.63;;;8.27;;
65665;SDS011;52365;47.464;18.976;2022-12-01T04:00:50;14.93;;;8.27;;
65665;SDS011;52365;47.464;18.976;2022-12-01T04:01:30;15.05;;;8.15;;
65665;SDS011;52365;47.464;18.976;2022-12-01T04:02:08;13.45;;;8.10;;
65665;SDS011;52365;47.464;18.976;2022-12-01T04:02:44;14.70;;;8.48;;
65665;SDS011;52365;47.464;18.976;2022-12-01T04:03:22;13.90;;;8.20;;
65665;SDS011;52365;47.464;18.976;2022-12-01T04:04:07;13.73;;;8.50;;
65665;SDS011;52365;47.464;18.976;2022-12-01T04:04:47;14.93;;;8.55;;
65665;SDS011;52365;47.464;18.976;2022-12-01T04:05:24;14.27;;;8.65;;
65665;SDS011;52365;47.464;18.976;2022-12-01T04:06:01;15.80;;;9.15;;
65665;SDS011;52365;47.464;18.976;2022-12-01T04:06:37;15.73;;;8.88;;
65665;SDS011;52365;47.464;18.976;2022-12-01T04:07:16;16.08;;;9.10;;
65665;SDS011;52365;47.464;18.976;2022-12-01T04:07:52;15.45;;;9.38;;
65665;SDS011;52365;47.464;18.976;2022-12-01T04:08:28;15.45;;;9.15;;
65665;SDS011;52365;47.464;18.976;2022-12-01T04:09:05;14.65;;;9.10;;
65665;SDS011;52365;47.464;18.976;2022-12-01T04:09:41;15.75;;;9.48;;
65665;SDS011;52365;47.464;18.976;2022-12-01T04:10:17;14.38;;;9.02;;
65665;SDS011;52365;47.464;18.976;2022-12-01T04:10:53;15.90;;;8.60;;
65665;SDS011;52365;47.464;18.976;2022-12-01T04:11:29;14.90;;;8.68;;
65665;SDS011;52365;47.464;18.976;2022-12-01T04:12:24;14.50;;;8.63;;
65665;SDS011;52365;47.464;18.976;2022-12-01T04:13:07;13.45;;;8.20;;
65665;SDS011;52365;47.464;18.976;2022-12-01T04:13:51;13.95;;;8.70;;
65665;SDS011;52365;47.464;18.976;2022-12-01T04:14:27;13.80;;;8.40;;
65665;SDS011;52365;47.464;18.976;2022-12-01T04:15:05;14.00;;;7.93;;
65665;SDS011;52365;47.464;18.976;2022-12-01T04:15:43;13.45;;;7.87;;
65665;SDS011;52365;47.464;18.976;2022-12-01T04:16:19;13.05;;;7.90;;
65665;SDS011;52365;47.464;18.976;2022-12-01T04:16:55;12.73;;;8.02;;
65665;SDS011;52365;47.464;18.976;2022-12-01T04:17:31;13.55;;;8.02;;
65665;SDS011;52365;47.464;18.976;2022-12-01T04:18:07;14.30;;;8.13;;
65665;SDS011;52365;47.464;18.976;2022-12-01T04:18:43;13.60;;;8.25;;
65665;SDS011;52365;47.464;18.976;2022-12-01T04:19:19;14.15;;;8.30;;
65665;SDS011;52365;47.464;18.976;2022-12-01T04:19:55;13.40;;;7.85;;
65665;SDS011;52365;47.464;18.976;2022-12-01T04:20:31;13.32;;;7.75;;
65665;SDS011;52365;47.464;18.976;2022-12-01T04:21:07;14.55;;;8.02;;
65665;SDS011;52365;47.464;18.976;2022-12-01T04:21:43;14.27;;;7.97;;
65665;SDS011;52365;47.464;18.976;2022-12-01T04:22:19;13.77;;;8.30;;
65665;SDS011;52365;47.464;18.976;2022-12-01T04:22:55;13.45;;;8.00;;
65665;SDS011;52365;47.464;18.976;2022-12-01T04:23:31;13.62;;;7.65;;
65665;SDS011;52365;47.464;18.976;2022-12-01T04:24:26;12.43;;;7.50;;
65665;SDS011;52365;47.464;18.976;2022-12-01T04:25:02;13.62;;;7.68;;
65665;SDS011;52365;47.464;18.976;2022-12-01T04:25:39;13.82;;;8.45;;
65665;SDS011;52365;47.464;18.976;2022-12-01T04:26:15;13.55;;;7.97;;
65665;SDS011;52365;47.464;18.976;2022-12-01T04:26:51;12.32;;;7.68;;